createdAt,value
2023-04-02T00:00:45.678Z,0.00
2023-04-02T00:01:45.724Z,0.00
2023-04-02T00:02:45.701Z,0.00
2023-04-02T00:03:45.769Z,0.00
2023-04-02T00:04:45.675Z,0.00
2023-04-02T00:05:45.678Z,0.00
2023-04-02T00:06:45.696Z,0.00
2023-04-02T00:07:45.666Z,0.00
2023-04-02T00:08:45.647Z,0.00
2023-04-02T00:09:45.638Z,0.00
2023-04-02T00:10:45.622Z,0.00
2023-04-02T00:11:45.647Z,0.00
2023-04-02T00:12:45.609Z,0.00
2023-04-02T00:13:45.642Z,0.00
2023-04-02T00:14:45.582Z,0.00
2023-04-02T00:15:45.605Z,0.00
2023-04-02T00:16:45.637Z,0.00
2023-04-02T00:17:45.584Z,0.00
2023-04-02T00:18:45.566Z,0.00
2023-04-02T00:19:45.586Z,0.00
2023-04-02T00:20:45.549Z,0.00
2023-04-02T00:21:45.602Z,0.00
2023-04-02T00:22:45.537Z,0.00
2023-04-02T00:23:45.547Z,0.00
2023-04-02T00:24:45.526Z,0.00
2023-04-02T00:25:45.691Z,0.00
2023-04-02T00:26:45.547Z,0.00
2023-04-02T00:27:45.536Z,0.00
2023-04-02T00:28:45.517Z,0.00
2023-04-02T00:29:45.511Z,0.00
2023-04-02T00:30:45.489Z,0.00
2023-04-02T00:31:45.575Z,0.00
2023-04-02T00:32:45.524Z,0.00
2023-04-02T00:33:45.504Z,0.00
2023-04-02T00:34:45.454Z,0.00
2023-04-02T00:35:45.499Z,0.00
2023-04-02T00:36:45.489Z,0.00
2023-04-02T00:37:45.461Z,0.00
2023-04-02T00:38:46.822Z,0.00
2023-04-02T00:39:45.450Z,0.00
2023-04-02T00:40:45.426Z,0.00
2023-04-02T00:41:45.431Z,0.00
2023-04-02T00:42:45.411Z,0.00
2023-04-02T00:43:45.403Z,0.00
2023-04-02T00:44:45.427Z,0.00
2023-04-02T00:45:45.447Z,0.00
2023-04-02T00:46:45.374Z,0.00
2023-04-02T00:47:45.440Z,0.00
2023-04-02T00:48:45.370Z,0.00
2023-04-02T00:49:45.371Z,0.00
2023-04-02T00:50:45.344Z,0.00
2023-04-02T00:51:45.360Z,0.00
2023-04-02T00:52:45.366Z,0.00
2023-04-02T00:53:45.347Z,0.00
2023-04-02T00:54:45.338Z,0.00
2023-04-02T00:55:45.346Z,0.00
2023-04-02T00:56:45.321Z,0.00
2023-04-02T00:57:45.344Z,0.00
2023-04-02T00:58:45.310Z,0.00
2023-04-02T00:59:45.319Z,0.00
2023-04-02T01:00:45.346Z,0.00
2023-04-02T01:01:45.345Z,0.00
2023-04-02T01:02:45.357Z,0.00
2023-04-02T01:03:45.400Z,0.00
2023-04-02T01:04:45.285Z,0.00
2023-04-02T01:05:45.311Z,0.00
2023-04-02T01:06:45.255Z,0.00
2023-04-02T01:07:45.252Z,0.00
2023-04-02T01:08:45.261Z,0.00
2023-04-02T01:09:45.261Z,0.00
2023-04-02T01:10:45.236Z,0.00
2023-04-02T01:11:45.261Z,0.00
2023-04-02T01:12:45.221Z,0.00
2023-04-02T01:13:45.224Z,0.00
2023-04-02T01:14:45.233Z,0.00
2023-04-02T01:15:45.247Z,0.00
2023-04-02T01:16:45.198Z,0.00
2023-04-02T01:17:45.299Z,0.00
2023-04-02T01:18:45.204Z,0.00
2023-04-02T01:19:45.279Z,0.00
2023-04-02T01:20:45.157Z,0.00
2023-04-02T01:21:45.179Z,0.00
2023-04-02T01:22:45.148Z,0.00
2023-04-02T01:23:45.158Z,0.00
2023-04-02T01:24:45.156Z,0.00
2023-04-02T01:25:45.191Z,0.00
2023-04-02T01:26:45.145Z,0.00
2023-04-02T01:27:45.166Z,0.00
2023-04-02T01:28:45.160Z,0.00
2023-04-02T01:29:45.143Z,0.00
2023-04-02T01:30:45.117Z,0.00
2023-04-02T01:31:45.401Z,0.00
2023-04-02T01:32:45.126Z,0.00
2023-04-02T01:33:45.126Z,0.00
2023-04-02T01:34:45.089Z,0.00
2023-04-02T01:35:45.114Z,0.00
2023-04-02T01:36:45.093Z,0.00
2023-04-02T01:37:45.103Z,0.00
2023-04-02T01:38:45.110Z,0.00
2023-04-02T01:39:45.101Z,0.00
2023-04-02T01:40:45.071Z,0.00
2023-04-02T01:41:45.073Z,0.00
2023-04-02T01:42:45.044Z,0.00
2023-04-02T01:43:45.060Z,0.00
2023-04-02T01:44:45.056Z,0.00
2023-04-02T01:45:45.081Z,0.00
2023-04-02T01:46:45.112Z,0.00
2023-04-02T01:47:45.061Z,0.00
2023-04-02T01:48:45.026Z,0.00
2023-04-02T01:49:45.023Z,0.00
2023-04-02T01:50:45.004Z,0.00
2023-04-02T01:51:45.036Z,0.00
2023-04-02T01:52:44.991Z,0.00
2023-04-02T01:53:45.008Z,0.00
2023-04-02T01:54:44.992Z,0.00
2023-04-02T01:55:45.000Z,0.00
2023-04-02T01:56:44.971Z,0.00
2023-04-02T01:57:45.001Z,0.00
2023-04-02T01:58:44.958Z,0.00
2023-04-02T01:59:45.004Z,0.00
2023-04-02T02:00:44.999Z,0.00
2023-04-02T02:01:44.977Z,0.00
2023-04-02T02:02:44.999Z,0.00
2023-04-02T02:03:44.981Z,0.00
2023-04-02T02:04:44.929Z,0.00
2023-04-02T02:05:44.940Z,0.00
2023-04-02T02:06:44.922Z,0.00
2023-04-02T02:07:44.923Z,0.00
2023-04-02T02:08:44.929Z,0.00
2023-04-02T02:09:44.933Z,0.00
2023-04-02T02:10:44.906Z,0.00
2023-04-02T02:11:44.918Z,0.00
2023-04-02T02:12:44.893Z,0.00
2023-04-02T02:13:44.908Z,0.00
2023-04-02T02:14:44.925Z,0.00
2023-04-02T02:15:44.889Z,0.00
2023-04-02T02:16:44.939Z,0.00
2023-04-02T02:17:44.949Z,0.00
2023-04-02T02:18:44.859Z,0.00
2023-04-02T02:19:44.896Z,0.00
2023-04-02T02:20:44.847Z,0.00
2023-04-02T02:21:44.868Z,0.00
2023-04-02T02:22:44.843Z,0.00
2023-04-02T02:23:44.847Z,0.00
2023-04-02T02:24:44.841Z,0.00
2023-04-02T02:25:44.862Z,0.00
2023-04-02T02:26:44.827Z,0.00
2023-04-02T02:27:44.833Z,0.00
2023-04-02T02:28:44.811Z,0.00
2023-04-02T02:29:44.821Z,0.00
2023-04-02T02:30:44.803Z,0.00
2023-04-02T02:31:44.885Z,0.00
2023-04-02T02:32:44.824Z,0.00
2023-04-02T02:33:44.795Z,0.00
2023-04-02T02:34:44.769Z,0.00
2023-04-02T02:35:44.801Z,0.00
2023-04-02T02:36:44.774Z,0.00
2023-04-02T02:37:44.773Z,0.00
2023-04-02T02:38:44.760Z,0.00
2023-04-02T02:39:44.761Z,0.00
2023-04-02T02:40:44.733Z,0.00
2023-04-02T02:41:44.777Z,0.00
2023-04-02T02:42:44.752Z,0.00
2023-04-02T02:43:44.749Z,0.00
2023-04-02T02:44:44.714Z,0.00
2023-04-02T02:45:44.752Z,0.00
2023-04-02T02:46:44.712Z,0.00
2023-04-02T02:47:44.775Z,0.00
2023-04-02T02:48:44.689Z,0.00
2023-04-02T02:49:44.712Z,0.00
2023-04-02T02:50:44.703Z,0.00
2023-04-02T02:51:44.707Z,0.00
2023-04-02T02:52:44.703Z,0.00
2023-04-02T02:53:44.704Z,0.00
2023-04-02T02:54:44.661Z,0.00
2023-04-02T02:55:44.666Z,0.00
2023-04-02T02:56:44.676Z,0.00
2023-04-02T02:57:44.666Z,0.00
2023-04-02T02:58:44.650Z,0.00
2023-04-02T02:59:44.652Z,0.00
2023-04-02T03:00:44.625Z,0.00
2023-04-02T03:01:44.712Z,0.00
2023-04-02T03:02:44.817Z,0.00
2023-04-02T03:03:45.070Z,0.00
2023-04-02T03:04:44.603Z,0.00
2023-04-02T03:05:44.613Z,0.00
2023-04-02T03:06:44.592Z,0.00
2023-04-02T03:07:44.600Z,0.00
2023-04-02T03:08:44.599Z,0.00
2023-04-02T03:09:44.599Z,0.00
2023-04-02T03:10:44.564Z,0.00
2023-04-02T03:11:44.600Z,0.00
2023-04-02T03:12:44.573Z,0.00
2023-04-02T03:13:44.578Z,0.00
2023-04-02T03:14:44.618Z,0.00
2023-04-02T03:15:44.591Z,0.00
2023-04-02T03:16:44.531Z,0.00
2023-04-02T03:17:44.575Z,0.00
2023-04-02T03:18:44.529Z,0.00
2023-04-02T03:19:44.541Z,0.00
2023-04-02T03:20:44.527Z,0.00
2023-04-02T03:21:44.524Z,0.00
2023-04-02T03:22:44.517Z,0.00
2023-04-02T03:23:44.533Z,0.00
2023-04-02T03:24:44.509Z,0.00
2023-04-02T03:25:44.508Z,0.00
2023-04-02T03:26:44.483Z,0.00
2023-04-02T03:27:44.518Z,0.00
2023-04-02T03:28:44.475Z,0.00
2023-04-02T03:29:44.509Z,0.00
2023-04-02T03:30:44.489Z,0.00
2023-04-02T03:31:44.565Z,0.00
2023-04-02T03:32:44.490Z,0.00
2023-04-02T03:33:44.460Z,0.00
2023-04-02T03:34:44.442Z,0.00
2023-04-02T03:35:44.467Z,0.00
2023-04-02T03:36:44.427Z,0.00
2023-04-02T03:37:44.473Z,0.00
2023-04-02T03:38:44.425Z,0.00
2023-04-02T03:39:44.462Z,0.00
2023-04-02T03:40:44.408Z,0.00
2023-04-02T03:41:44.441Z,0.00
2023-04-02T03:42:44.409Z,0.00
2023-04-02T03:43:44.408Z,0.00
2023-04-02T03:44:44.400Z,0.00
2023-04-02T03:45:44.419Z,0.00
2023-04-02T03:46:44.493Z,0.00
2023-04-02T03:47:44.457Z,0.00
2023-04-02T03:48:44.370Z,0.00
2023-04-02T03:49:44.418Z,0.00
2023-04-02T03:50:44.371Z,0.00
2023-04-02T03:51:44.393Z,0.00
2023-04-02T03:52:44.354Z,0.00
2023-04-02T03:53:44.383Z,0.00
2023-04-02T03:54:53.967Z,0.00
2023-04-02T03:55:45.369Z,0.00
2023-04-02T03:56:44.345Z,0.00
2023-04-02T03:57:44.364Z,0.00
2023-04-02T03:58:44.321Z,0.00
2023-04-02T03:59:44.352Z,0.00
2023-04-02T04:00:44.316Z,0.00
2023-04-02T04:01:44.361Z,0.00
2023-04-02T04:02:44.365Z,0.00
2023-04-02T04:03:44.384Z,0.00
2023-04-02T04:04:44.292Z,0.00
2023-04-02T04:05:44.303Z,0.00
2023-04-02T04:06:44.285Z,0.00
2023-04-02T04:07:44.322Z,0.00
2023-04-02T04:08:44.266Z,0.00
2023-04-02T04:09:44.283Z,0.00
2023-04-02T04:10:44.298Z,0.00
2023-04-02T04:11:44.270Z,0.00
2023-04-02T04:12:44.237Z,0.00
2023-04-02T04:13:44.292Z,0.00
2023-04-02T04:14:45.372Z,0.00
2023-04-02T04:15:44.247Z,0.00
2023-04-02T04:16:44.250Z,0.00
2023-04-02T04:17:44.254Z,0.00
2023-04-02T04:18:44.218Z,0.00
2023-04-02T04:19:44.246Z,0.00
2023-04-02T04:20:44.202Z,0.00
2023-04-02T04:21:44.218Z,0.00
2023-04-02T04:22:44.195Z,0.00
2023-04-02T04:23:44.208Z,0.00
2023-04-02T04:24:44.195Z,0.00
2023-04-02T04:25:44.185Z,1.00
2023-04-02T04:26:44.182Z,1.00
2023-04-02T04:27:44.202Z,1.00
2023-04-02T04:28:44.170Z,0.00
2023-04-02T04:29:44.197Z,1.00
2023-04-02T04:30:44.170Z,1.00
2023-04-02T04:31:44.186Z,1.00
2023-04-02T04:32:44.170Z,2.00
2023-04-02T04:33:44.178Z,1.00
2023-04-02T04:34:44.124Z,1.00
2023-04-02T04:35:44.185Z,2.00
2023-04-02T04:36:44.119Z,2.00
2023-04-02T04:37:44.122Z,2.00
2023-04-02T04:38:44.123Z,2.00
2023-04-02T04:39:44.137Z,3.00
2023-04-02T04:40:44.113Z,3.00
2023-04-02T04:41:44.128Z,4.00
2023-04-02T04:42:44.103Z,7.00
2023-04-02T04:43:44.102Z,7.00
2023-04-02T04:44:44.074Z,7.00
2023-04-02T04:45:44.135Z,7.00
2023-04-02T04:46:44.084Z,10.00
2023-04-02T04:47:44.106Z,11.00
2023-04-02T04:48:44.057Z,12.00
2023-04-02T04:49:44.055Z,14.00
2023-04-02T04:50:44.068Z,16.00
2023-04-02T04:51:44.082Z,18.00
2023-04-02T04:52:44.047Z,18.00
2023-04-02T04:53:44.040Z,20.00
2023-04-02T04:54:44.030Z,19.00
2023-04-02T04:55:44.068Z,23.00
2023-04-02T04:56:44.029Z,25.00
2023-04-02T04:57:44.032Z,25.00
2023-04-02T04:58:43.997Z,26.00
2023-04-02T04:59:44.023Z,28.00
2023-04-02T05:00:44.000Z,30.00
2023-04-02T05:01:44.054Z,31.00
2023-04-02T05:02:44.024Z,31.00
2023-04-02T05:03:43.983Z,34.00
2023-04-02T05:04:44.042Z,36.00
2023-04-02T05:05:43.989Z,38.00
2023-04-02T05:06:43.962Z,39.00
2023-04-02T05:07:43.969Z,42.00
2023-04-02T05:08:43.958Z,45.00
2023-04-02T05:09:43.984Z,43.00
2023-04-02T05:10:43.955Z,43.00
2023-04-02T05:11:43.954Z,46.00
2023-04-02T05:12:43.932Z,53.00
2023-04-02T05:13:43.928Z,57.00
2023-04-02T05:14:43.923Z,61.00
2023-04-02T05:15:43.992Z,65.00
2023-04-02T05:16:43.906Z,68.00
2023-04-02T05:17:43.981Z,73.00
2023-04-02T05:18:43.890Z,81.00
2023-04-02T05:19:43.917Z,84.00
2023-04-02T05:20:43.874Z,88.00
2023-04-02T05:21:43.895Z,94.00
2023-04-02T05:22:43.885Z,97.00
2023-04-02T05:23:43.920Z,102.00
2023-04-02T05:24:43.860Z,106.00
2023-04-02T05:25:43.864Z,106.00
2023-04-02T05:26:43.855Z,118.00
2023-04-02T05:27:43.875Z,124.00
2023-04-02T05:28:43.833Z,122.00
2023-04-02T05:29:43.865Z,129.00
2023-04-02T05:30:43.828Z,134.00
2023-04-02T05:31:43.891Z,140.00
2023-04-02T05:32:43.857Z,145.00
2023-04-02T05:33:43.826Z,156.00
2023-04-02T05:34:43.811Z,156.00
2023-04-02T05:35:43.854Z,151.00
2023-04-02T05:36:43.821Z,156.00
2023-04-02T05:37:43.814Z,167.00
2023-04-02T05:38:43.788Z,184.00
2023-04-02T05:39:43.788Z,204.00
2023-04-02T05:40:43.786Z,211.00
2023-04-02T05:41:43.791Z,200.00
2023-04-02T05:42:43.767Z,194.00
2023-04-02T05:43:43.774Z,185.00
2023-04-02T05:44:43.756Z,183.00
2023-04-02T05:45:43.783Z,182.00
2023-04-02T05:46:43.810Z,180.00
2023-04-02T05:47:43.789Z,175.00
2023-04-02T05:48:43.768Z,182.00
2023-04-02T05:49:43.737Z,191.00
2023-04-02T05:50:43.729Z,205.00
2023-04-02T05:51:43.726Z,214.00
2023-04-02T05:52:43.696Z,221.00
2023-04-02T05:53:43.726Z,259.00
2023-04-02T05:54:43.714Z,267.00
2023-04-02T05:55:43.705Z,254.00
2023-04-02T05:56:43.679Z,270.00
2023-04-02T05:57:52.867Z,273.00
2023-04-02T05:58:45.632Z,275.00
2023-04-02T05:59:43.671Z,267.00
2023-04-02T06:00:43.678Z,284.00
2023-04-02T06:01:43.710Z,307.00
2023-04-02T06:02:43.714Z,290.00
2023-04-02T06:03:43.771Z,275.00
2023-04-02T06:04:43.646Z,289.00
2023-04-02T06:05:43.650Z,298.00
2023-04-02T06:06:43.649Z,313.00
2023-04-02T06:07:43.636Z,319.00
2023-04-02T06:08:43.621Z,314.00
2023-04-02T06:09:43.621Z,300.00
2023-04-02T06:10:43.609Z,297.00
2023-04-02T06:11:43.620Z,300.00
2023-04-02T06:12:43.627Z,298.00
2023-04-02T06:13:43.634Z,304.00
2023-04-02T06:14:43.625Z,332.00
2023-04-02T06:15:44.500Z,349.00
2023-04-02T06:16:43.625Z,340.00
2023-04-02T06:17:43.613Z,323.00
2023-04-02T06:18:43.566Z,322.00
2023-04-02T06:19:43.589Z,323.00
2023-04-02T06:20:43.561Z,337.00
2023-04-02T06:21:43.566Z,378.00
2023-04-02T06:22:43.539Z,366.00
2023-04-02T06:23:43.553Z,361.00
2023-04-02T06:24:43.552Z,357.00
2023-04-02T06:25:43.534Z,368.00
2023-04-02T06:26:43.519Z,410.00
2023-04-02T06:27:43.536Z,442.00
2023-04-02T06:28:43.512Z,480.00
2023-04-02T06:29:43.536Z,486.00
2023-04-02T06:30:43.566Z,492.00
2023-04-02T06:31:43.517Z,491.00
2023-04-02T06:32:43.523Z,460.00
2023-04-02T06:33:43.502Z,448.00
2023-04-02T06:34:43.484Z,457.00
2023-04-02T06:35:43.587Z,459.00
2023-04-02T06:36:43.465Z,467.00
2023-04-02T06:37:43.485Z,488.00
2023-04-02T06:38:43.462Z,506.00
2023-04-02T06:39:43.469Z,507.00
2023-04-02T06:40:43.446Z,510.00
2023-04-02T06:41:43.481Z,478.00
2023-04-02T06:42:43.435Z,466.00
2023-04-02T06:43:43.454Z,461.00
2023-04-02T06:44:43.446Z,480.00
2023-04-02T06:45:43.481Z,481.00
2023-04-02T06:46:43.450Z,513.00
2023-04-02T06:47:43.483Z,550.00
2023-04-02T06:48:43.410Z,563.00
2023-04-02T06:49:43.426Z,580.00
2023-04-02T06:50:43.420Z,625.00
2023-04-02T06:51:43.416Z,725.00
2023-04-02T06:52:43.389Z,792.00
2023-04-02T06:53:43.408Z,787.00
2023-04-02T06:54:43.425Z,791.00
2023-04-02T06:55:43.427Z,754.00
2023-04-02T06:56:43.367Z,770.00
2023-04-02T06:57:43.402Z,749.00
2023-04-02T06:58:43.363Z,757.00
2023-04-02T06:59:43.365Z,768.00
2023-04-02T07:00:43.370Z,793.00
2023-04-02T07:01:43.401Z,784.00
2023-04-02T07:02:43.385Z,801.00
2023-04-02T07:03:43.351Z,835.00
2023-04-02T07:04:43.323Z,856.00
2023-04-02T07:05:43.357Z,858.00
2023-04-02T07:06:43.358Z,877.00
2023-04-02T07:07:43.320Z,882.00
2023-04-02T07:08:43.315Z,885.00
2023-04-02T07:09:43.309Z,902.00
2023-04-02T07:10:43.290Z,916.00
2023-04-02T07:11:43.305Z,1003.00
2023-04-02T07:12:43.289Z,1056.00
2023-04-02T07:13:43.299Z,1194.00
2023-04-02T07:14:43.286Z,1463.00
2023-04-02T07:15:43.302Z,1649.00
2023-04-02T07:16:43.276Z,1478.00
2023-04-02T07:17:43.367Z,1290.00
2023-04-02T07:18:43.244Z,1103.00
2023-04-02T07:19:43.253Z,989.00
2023-04-02T07:20:43.239Z,960.00
2023-04-02T07:21:43.243Z,916.00
2023-04-02T07:22:43.213Z,950.00
2023-04-02T07:23:43.268Z,1010.00
2023-04-02T07:24:43.199Z,1019.00
2023-04-02T07:25:43.262Z,1061.00
2023-04-02T07:26:43.234Z,1022.00
2023-04-02T07:27:43.209Z,1016.00
2023-04-02T07:28:43.208Z,1045.00
2023-04-02T07:29:43.207Z,1076.00
2023-04-02T07:30:43.194Z,1098.00
2023-04-02T07:31:43.235Z,1085.00
2023-04-02T07:32:43.227Z,1115.00
2023-04-02T07:33:43.208Z,1248.00
2023-04-02T07:34:43.170Z,1269.00
2023-04-02T07:35:43.202Z,1191.00
2023-04-02T07:36:43.156Z,1050.00
2023-04-02T07:37:43.160Z,965.00
2023-04-02T07:38:43.140Z,878.00
2023-04-02T07:39:43.202Z,820.00
2023-04-02T07:40:43.126Z,770.00
2023-04-02T07:41:43.145Z,776.00
2023-04-02T07:42:43.129Z,784.00
2023-04-02T07:43:43.137Z,766.00
2023-04-02T07:44:43.126Z,753.00
2023-04-02T07:45:43.129Z,760.00
2023-04-02T07:46:43.149Z,756.00
2023-04-02T07:47:43.165Z,728.00
2023-04-02T07:48:43.100Z,737.00
2023-04-02T07:49:43.107Z,705.00
2023-04-02T07:50:43.085Z,698.00
2023-04-02T07:51:43.093Z,694.00
2023-04-02T07:52:43.075Z,687.00
2023-04-02T07:53:43.074Z,702.00
2023-04-02T07:54:43.079Z,752.00
2023-04-02T07:55:43.089Z,762.00
2023-04-02T07:56:43.067Z,812.00
2023-04-02T07:57:45.655Z,872.00
2023-04-02T07:58:43.074Z,879.00
2023-04-02T07:59:43.061Z,850.00
2023-04-02T08:00:43.044Z,832.00
2023-04-02T08:01:43.335Z,835.00
2023-04-02T08:02:43.096Z,880.00
2023-04-02T08:03:43.100Z,895.00
2023-04-02T08:04:43.025Z,873.00
2023-04-02T08:05:43.029Z,843.00
2023-04-02T08:06:43.021Z,881.00
2023-04-02T08:07:43.032Z,886.00
2023-04-02T08:08:42.989Z,853.00
2023-04-02T08:09:43.004Z,805.00
2023-04-02T08:10:42.991Z,778.00
2023-04-02T08:11:42.995Z,773.00
2023-04-02T08:12:42.988Z,792.00
2023-04-02T08:13:43.014Z,834.00
2023-04-02T08:14:42.962Z,876.00
2023-04-02T08:15:42.994Z,889.00
2023-04-02T08:16:42.969Z,875.00
2023-04-02T08:17:43.023Z,861.00
2023-04-02T08:18:42.947Z,838.00
2023-04-02T08:19:54.101Z,878.00
2023-04-02T08:20:43.955Z,880.00
2023-04-02T08:21:42.953Z,910.00
2023-04-02T08:22:42.922Z,969.00
2023-04-02T08:23:42.974Z,939.00
2023-04-02T08:24:42.928Z,974.00
2023-04-02T08:25:42.924Z,1023.00
2023-04-02T08:26:45.423Z,1107.00
2023-04-02T08:27:42.923Z,1145.00
2023-04-02T08:28:42.924Z,1150.00
2023-04-02T08:29:42.924Z,1101.00
2023-04-02T08:30:42.898Z,1089.00
2023-04-02T08:31:42.890Z,1009.00
2023-04-02T08:32:42.882Z,960.00
2023-04-02T08:33:42.915Z,933.00
2023-04-02T08:34:42.902Z,903.00
2023-04-02T08:35:42.905Z,959.00
2023-04-02T08:36:42.858Z,967.00
2023-04-02T08:37:42.849Z,990.00
2023-04-02T08:38:42.862Z,957.00
2023-04-02T08:39:42.835Z,975.00
2023-04-02T08:40:42.847Z,994.00
2023-04-02T08:41:42.849Z,976.00
2023-04-02T08:42:42.825Z,952.00
2023-04-02T08:43:42.850Z,968.00
2023-04-02T08:44:42.844Z,951.00
2023-04-02T08:45:43.013Z,858.00
2023-04-02T08:46:42.800Z,829.00
2023-04-02T08:47:42.855Z,829.00
2023-04-02T08:48:42.815Z,862.00
2023-04-02T08:49:42.812Z,921.00
2023-04-02T08:50:42.811Z,943.00
2023-04-02T08:51:42.783Z,991.00
2023-04-02T08:52:42.763Z,1028.00
2023-04-02T08:53:42.799Z,1026.00
2023-04-02T08:54:42.814Z,1008.00
2023-04-02T08:55:42.799Z,1057.00
2023-04-02T08:56:42.736Z,1087.00
2023-04-02T08:57:42.745Z,1150.00
2023-04-02T08:58:42.734Z,1136.00
2023-04-02T08:59:42.739Z,1178.00
2023-04-02T09:00:42.726Z,1189.00
2023-04-02T09:01:42.816Z,1213.00
2023-04-02T09:02:42.750Z,1246.00
2023-04-02T09:03:42.752Z,1226.00
2023-04-02T09:04:42.747Z,1261.00
2023-04-02T09:05:42.730Z,1330.00
2023-04-02T09:06:42.736Z,1373.00
2023-04-02T09:07:42.699Z,1412.00
2023-04-02T09:08:42.694Z,1350.00
2023-04-02T09:09:42.689Z,1345.00
2023-04-02T09:10:42.703Z,1301.00
2023-04-02T09:11:42.678Z,1249.00
2023-04-02T09:12:42.663Z,1263.00
2023-04-02T09:13:42.678Z,1301.00
2023-04-02T09:14:42.663Z,1315.00
2023-04-02T09:15:42.717Z,1307.00
2023-04-02T09:16:42.663Z,1311.00
2023-04-02T09:17:52.899Z,1339.00
2023-04-02T09:18:43.634Z,1380.00
2023-04-02T09:19:42.640Z,1421.00
2023-04-02T09:20:42.622Z,1433.00
2023-04-02T09:21:42.652Z,1423.00
2023-04-02T09:22:42.637Z,1504.00
2023-04-02T09:23:42.632Z,1545.00
2023-04-02T09:24:42.612Z,1540.00
2023-04-02T09:25:43.395Z,1578.00
2023-04-02T09:26:42.596Z,1678.00
2023-04-02T09:27:42.639Z,1671.00
2023-04-02T09:28:42.584Z,1665.00
2023-04-02T09:29:42.583Z,1715.00
2023-04-02T09:30:42.580Z,1704.00
2023-04-02T09:31:42.633Z,1675.00
2023-04-02T09:32:42.575Z,1722.00
2023-04-02T09:33:42.631Z,1826.00
2023-04-02T09:34:42.543Z,1901.00
2023-04-02T09:35:42.731Z,1925.00
2023-04-02T09:36:42.524Z,1956.00
2023-04-02T09:37:42.565Z,2096.00
2023-04-02T09:38:42.545Z,2090.00
2023-04-02T09:39:42.561Z,2025.00
2023-04-02T09:40:42.567Z,2125.00
2023-04-02T09:41:43.743Z,2149.00
2023-04-02T09:42:42.519Z,2164.00
2023-04-02T09:43:42.505Z,2243.00
2023-04-02T09:44:42.486Z,2236.00
2023-04-02T09:45:42.515Z,2293.00
2023-04-02T09:46:42.520Z,2264.00
2023-04-02T09:47:42.671Z,2328.00
2023-04-02T09:48:42.474Z,2418.00
2023-04-02T09:49:42.501Z,2469.00
2023-04-02T09:50:42.488Z,2607.00
2023-04-02T09:51:42.501Z,2554.00
2023-04-02T09:52:42.439Z,2491.00
2023-04-02T09:53:42.794Z,2389.00
2023-04-02T09:54:42.470Z,2426.00
2023-04-02T09:55:42.488Z,2293.00
2023-04-02T09:56:42.438Z,2305.00
2023-04-02T09:57:42.438Z,2348.00
2023-04-02T09:58:42.416Z,2292.00
2023-04-02T09:59:42.455Z,2289.00
2023-04-02T10:00:42.467Z,2330.00
2023-04-02T10:01:42.558Z,2183.00
2023-04-02T10:02:42.417Z,2179.00
2023-04-02T10:03:42.413Z,2372.00
2023-04-02T10:04:42.505Z,2559.00
2023-04-02T10:05:42.659Z,2557.00
2023-04-02T10:06:42.381Z,2777.00
2023-04-02T10:07:42.401Z,2827.00
2023-04-02T10:08:42.373Z,2542.00
2023-04-02T10:09:42.384Z,2500.00
2023-04-02T10:10:42.398Z,2613.00
2023-04-02T10:11:46.764Z,2391.00
2023-04-02T10:12:42.346Z,2361.00
2023-04-02T10:13:42.358Z,2530.00
2023-04-02T10:14:42.352Z,2552.00
2023-04-02T10:15:42.382Z,2437.00
2023-04-02T10:16:42.439Z,2257.00
2023-04-02T10:17:42.388Z,2228.00
2023-04-02T10:18:42.310Z,2174.00
2023-04-02T10:19:42.322Z,2232.00
2023-04-02T10:20:51.001Z,2250.00
2023-04-02T10:21:43.359Z,2414.00
2023-04-02T10:22:42.332Z,2352.00
2023-04-02T10:23:42.332Z,2516.00
2023-04-02T10:24:42.306Z,2216.00
2023-04-02T10:25:42.290Z,2041.00
2023-04-02T10:26:42.270Z,2036.00
2023-04-02T10:27:42.298Z,1996.00
2023-04-02T10:28:42.312Z,1975.00
2023-04-02T10:29:42.295Z,1920.00
2023-04-02T10:30:42.314Z,1960.00
2023-04-02T10:31:42.262Z,1881.00
2023-04-02T10:32:42.319Z,1769.00
2023-04-02T10:33:42.256Z,1847.00
2023-04-02T10:34:43.147Z,1810.00
2023-04-02T10:35:42.257Z,1725.00
2023-04-02T10:36:42.246Z,1723.00
2023-04-02T10:37:42.253Z,1655.00
2023-04-02T10:38:42.243Z,1600.00
2023-04-02T10:39:42.225Z,1534.00
2023-04-02T10:40:42.276Z,1499.00
2023-04-02T10:41:42.248Z,1508.00
2023-04-02T10:42:42.205Z,1587.00
2023-04-02T10:43:42.211Z,1739.00
2023-04-02T10:44:42.197Z,1904.00
2023-04-02T10:45:42.274Z,1867.00
2023-04-02T10:46:42.293Z,1910.00
2023-04-02T10:47:42.258Z,1919.00
2023-04-02T10:48:42.177Z,1969.00
2023-04-02T10:49:42.241Z,2093.00
2023-04-02T10:50:42.180Z,1973.00
2023-04-02T10:51:42.195Z,1927.00
2023-04-02T10:52:42.163Z,2112.00
2023-04-02T10:53:42.160Z,2457.00
2023-04-02T10:54:42.163Z,2795.00
2023-04-02T10:55:42.149Z,3220.00
2023-04-02T10:56:50.648Z,3248.00
2023-04-02T10:57:43.317Z,3163.00
2023-04-02T10:58:42.140Z,3058.00
2023-04-02T10:59:42.132Z,2782.00
2023-04-02T11:00:42.133Z,2716.00
2023-04-02T11:01:42.186Z,2743.00
2023-04-02T11:02:42.110Z,2876.00
2023-04-02T11:03:42.263Z,2833.00
2023-04-02T11:04:42.094Z,2728.00
2023-04-02T11:05:42.094Z,2719.00
2023-04-02T11:06:42.084Z,2876.00
2023-04-02T11:07:42.112Z,2704.00
2023-04-02T11:08:42.110Z,2708.00
2023-04-02T11:09:42.087Z,2908.00
2023-04-02T11:10:42.073Z,2872.00
2023-04-02T11:11:42.063Z,2739.00
2023-04-02T11:12:42.295Z,2774.00
2023-04-02T11:13:42.084Z,2654.00
2023-04-02T11:14:42.036Z,2497.00
2023-04-02T11:15:42.090Z,2343.00
2023-04-02T11:16:44.199Z,2288.00
2023-04-02T11:17:42.078Z,2189.00
2023-04-02T11:18:42.038Z,2172.00
2023-04-02T11:19:42.038Z,2399.00
2023-04-02T11:20:42.042Z,2341.00
2023-04-02T11:21:54.982Z,2297.00
2023-04-02T11:22:42.989Z,2314.00
2023-04-02T11:23:42.023Z,2232.00
2023-04-02T11:24:42.030Z,2003.00
2023-04-02T11:25:42.014Z,1847.00
2023-04-02T11:26:42.028Z,1800.00
2023-04-02T11:27:41.989Z,1755.00
2023-04-02T11:28:41.998Z,1669.00
2023-04-02T11:29:41.997Z,1645.00
2023-04-02T11:30:41.954Z,1620.00
2023-04-02T11:31:42.000Z,1519.00
2023-04-02T11:32:41.989Z,1445.00
2023-04-02T11:33:44.756Z,1444.00
2023-04-02T11:34:41.972Z,1445.00
2023-04-02T11:35:42.017Z,1370.00
2023-04-02T11:36:41.922Z,1304.00
2023-04-02T11:37:42.016Z,1274.00
2023-04-02T11:38:41.931Z,1261.00
2023-04-02T11:39:41.921Z,1266.00
2023-04-02T11:40:41.917Z,1288.00
2023-04-02T11:41:41.934Z,1325.00
2023-04-02T11:42:41.906Z,1385.00
2023-04-02T11:43:41.961Z,1439.00
2023-04-02T11:44:41.912Z,1503.00
2023-04-02T11:45:50.278Z,1548.00
2023-04-02T11:46:42.905Z,1527.00
2023-04-02T11:47:41.973Z,1488.00
2023-04-02T11:48:41.888Z,1496.00
2023-04-02T11:49:41.888Z,1507.00
2023-04-02T11:50:41.889Z,1497.00
2023-04-02T11:51:41.909Z,1470.00
2023-04-02T11:52:41.931Z,1461.00
2023-04-02T11:53:41.877Z,1425.00
2023-04-02T11:54:41.859Z,1414.00
2023-04-02T11:55:41.902Z,1425.00
2023-04-02T11:56:41.833Z,1428.00
2023-04-02T11:57:41.909Z,1414.00
2023-04-02T11:58:48.853Z,1459.00
2023-04-02T11:59:41.851Z,1478.00
2023-04-02T12:00:41.809Z,1493.00
2023-04-02T12:01:41.843Z,1476.00
2023-04-02T12:02:41.891Z,1467.00
2023-04-02T12:03:41.784Z,1434.00
2023-04-02T12:04:41.783Z,1397.00
2023-04-02T12:05:41.957Z,1384.00
2023-04-02T12:06:41.783Z,1353.00
2023-04-02T12:07:41.770Z,1367.00
2023-04-02T12:08:54.301Z,1393.00
2023-04-02T12:09:42.781Z,1389.00
2023-04-02T12:10:41.768Z,1437.00
2023-04-02T12:11:41.823Z,1454.00
2023-04-02T12:12:41.750Z,1408.00
2023-04-02T12:13:41.763Z,1346.00
2023-04-02T12:14:41.757Z,1333.00
2023-04-02T12:15:41.748Z,1363.00
2023-04-02T12:16:41.818Z,1386.00
2023-04-02T12:17:41.743Z,1416.00
2023-04-02T12:18:41.704Z,1429.00
2023-04-02T12:19:41.763Z,1467.00
2023-04-02T12:20:41.695Z,1542.00
2023-04-02T12:21:41.738Z,1602.00
2023-04-02T12:22:41.692Z,1681.00
2023-04-02T12:23:41.694Z,1774.00
2023-04-02T12:24:41.696Z,1862.00
2023-04-02T12:25:41.688Z,1896.00
2023-04-02T12:26:41.660Z,1854.00
2023-04-02T12:27:41.687Z,1828.00
2023-04-02T12:28:41.684Z,1802.00
2023-04-02T12:29:41.674Z,1745.00
2023-04-02T12:30:41.740Z,1699.00
2023-04-02T12:31:41.662Z,1660.00
2023-04-02T12:32:41.721Z,1633.00
2023-04-02T12:33:41.643Z,1618.00
2023-04-02T12:34:41.669Z,1614.00
2023-04-02T12:35:41.700Z,1635.00
2023-04-02T12:36:41.638Z,1643.00
2023-04-02T12:37:41.626Z,1659.00
2023-04-02T12:38:41.617Z,1669.00
2023-04-02T12:39:41.650Z,1651.00